Time;durP1;ratioP1;P1;durP2;ratioP2;P2;SDS_P1;SDS_P2;PMS_P1;PMS_P2;Temp;Humidity;BMP_temperature;BMP_pressure;BME280_temperature;BME280_humidity;BME280_pressure;Samples;Min_cycle;Max_cycle;Signal;HPM_P1;HPM_P2
2023/03/11 00:00:41;;;;;;;3.63;2.23;;;1.60;99.90;;;;;;5052661;28;20285;-81
2023/03/11 00:03:08;;;;;;;3.67;2.30;;;1.60;99.90;;;;;;5035915;28;20623;-81
2023/03/11 00:05:36;;;;;;;3.33;2.40;;;1.60;99.90;;;;;;5053439;28;20534;-81
2023/03/11 00:08:04;;;;;;;2.30;1.73;;;1.60;99.90;;;;;;5052847;28;20177;-81
2023/03/11 00:10:36;;;;;;;3.17;2.40;;;1.60;99.90;;;;;;5034949;28;20174;-81
2023/03/11 00:13:02;;;;;;;2.33;1.60;;;1.60;99.90;;;;;;5035011;28;20268;-81
2023/03/11 00:15:28;;;;;;;4.27;2.53;;;1.60;99.90;;;;;;5034716;28;20217;-81
2023/03/11 00:17:54;;;;;;;2.60;2.40;;;1.60;99.90;;;;;;5035325;28;20177;-81
2023/03/11 00:20:26;;;;;;;2.37;2.00;;;1.60;99.90;;;;;;5035032;28;20177;-82
2023/03/11 00:22:52;;;;;;;4.23;2.50;;;1.60;99.90;;;;;;5052926;28;20183;-80
2023/03/11 00:25:19;;;;;;;2.83;2.23;;;1.50;99.90;;;;;;5035303;28;20197;-83
2023/03/11 00:27:45;;;;;;;2.80;2.17;;;1.60;99.90;;;;;;5053219;28;20677;-81
2023/03/11 00:30:12;;;;;;;2.23;1.80;;;1.60;99.90;;;;;;5035094;28;20177;-81
2023/03/11 00:32:37;;;;;;;1.73;1.60;;;1.60;99.90;;;;;;5035360;28;20170;-80
2023/03/11 00:35:04;;;;;;;3.90;2.50;;;1.60;99.90;;;;;;5035508;28;20194;-81
2023/03/11 00:37:29;;;;;;;2.73;1.60;;;1.60;99.90;;;;;;5056683;28;20174;-81
2023/03/11 00:39:55;;;;;;;2.33;1.77;;;1.50;99.90;;;;;;5039606;28;20181;-80
2023/03/11 00:42:21;;;;;;;2.40;2.00;;;1.50;99.90;;;;;;5039297;28;20209;-81
2023/03/11 00:44:46;;;;;;;1.97;1.63;;;1.60;99.90;;;;;;5057218;28;20239;-81
2023/03/11 00:47:12;;;;;;;2.60;1.87;;;1.60;99.90;;;;;;5057675;28;20190;-81
2023/03/11 00:49:38;;;;;;;2.10;1.90;;;1.50;99.90;;;;;;5057400;28;20189;-80
2023/03/11 00:52:04;;;;;;;1.87;1.73;;;1.50;99.90;;;;;;5039290;28;20173;-81
2023/03/11 00:54:30;;;;;;;2.30;1.97;;;1.50;99.90;;;;;;5039365;28;20202;-81
2023/03/11 00:56:55;;;;;;;3.30;2.10;;;1.50;99.90;;;;;;5039369;28;20568;-81
2023/03/11 00:59:21;;;;;;;3.40;2.37;;;1.50;99.90;;;;;;5057501;28;20178;-82
2023/03/11 01:01:47;;;;;;;2.73;2.33;;;1.50;99.90;;;;;;5039241;28;20232;-81
2023/03/11 01:04:13;;;;;;;2.10;1.90;;;1.40;99.90;;;;;;5057158;28;20200;-81
2023/03/11 01:06:38;;;;;;;2.43;2.23;;;1.40;99.90;;;;;;5039531;28;20191;-81
2023/03/11 01:09:04;;;;;;;2.63;2.40;;;1.40;99.90;;;;;;5057236;28;20189;-81
2023/03/11 01:11:30;;;;;;;2.63;2.20;;;1.40;99.90;;;;;;5057333;28;20174;-81
2023/03/11 01:13:56;;;;;;;2.63;1.93;;;1.50;99.90;;;;;;5057073;28;20216;-81
2023/03/11 01:16:21;;;;;;;3.57;2.30;;;1.40;99.90;;;;;;5039562;28;20185;-81
2023/03/11 01:18:47;;;;;;;2.20;1.70;;;1.30;99.90;;;;;;5038987;28;20180;-81
2023/03/11 01:21:13;;;;;;;2.47;1.90;;;1.30;99.90;;;;;;5057272;28;20209;-81
2023/03/11 01:23:39;;;;;;;2.70;1.93;;;1.20;99.90;;;;;;5039578;28;20209;-81
2023/03/11 01:26:05;;;;;;;2.50;2.30;;;1.20;99.90;;;;;;5039818;28;20263;-81
2023/03/11 01:28:31;;;;;;;2.80;2.50;;;1.10;99.90;;;;;;5039954;28;20174;-81
2023/03/11 01:30:56;;;;;;;3.60;2.33;;;1.10;99.90;;;;;;5039403;28;20227;-81
2023/03/11 01:33:22;;;;;;;3.80;2.23;;;1.20;99.90;;;;;;5057666;28;20188;-81
2023/03/11 01:35:48;;;;;;;2.93;2.33;;;1.20;99.90;;;;;;5058092;28;20604;-81
2023/03/11 01:38:14;;;;;;;3.63;1.87;;;1.30;99.90;;;;;;5038228;28;20270;-80
2023/03/11 01:40:43;;;;;;;2.20;2.00;;;1.30;99.90;;;;;;5037337;28;20305;-81
2023/03/11 01:43:40;;;;;;;2.77;1.93;;;1.40;99.90;;;;;;5055405;28;20177;-81
2023/03/11 01:46:19;;;;;;;1.93;1.60;;;1.30;99.90;;;;;;5055458;28;20181;-81
2023/03/11 01:48:56;;;;;;;2.50;2.13;;;1.40;99.90;;;;;;5056215;28;20238;-81
2023/03/11 01:51:38;;;;;;;2.40;2.10;;;1.30;99.90;;;;;;5056301;28;20538;-80
2023/03/11 01:54:09;;;;;;;3.17;2.13;;;1.30;99.90;;;;;;5037845;28;20712;-81
2023/03/11 01:56:35;;;;;;;2.10;1.73;;;1.30;99.90;;;;;;5056154;28;20189;-80
2023/03/11 01:59:02;;;;;;;2.53;1.73;;;1.30;99.90;;;;;;5037918;28;20244;-81
2023/03/11 02:01:28;;;;;;;2.57;2.00;;;1.30;99.90;;;;;;5055923;28;20209;-80
2023/03/11 02:03:55;;;;;;;2.10;1.90;;;1.20;99.90;;;;;;5056051;28;20224;-82
2023/03/11 02:06:22;;;;;;;2.37;2.07;;;1.10;99.90;;;;;;5055588;28;20657;-81
2023/03/11 02:08:49;;;;;;;2.17;1.97;;;1.20;99.90;;;;;;5056072;28;20174;-80
2023/03/11 02:11:19;;;;;;;2.50;2.30;;;1.20;99.90;;;;;;5037362;28;20178;-82
2023/03/11 02:13:45;;;;;;;2.50;1.87;;;1.20;99.90;;;;;;5055952;28;20185;-81
2023/03/11 02:16:12;;;;;;;2.73;2.27;;;1.20;99.90;;;;;;5037885;28;20219;-81
2023/03/11 02:18:39;;;;;;;2.30;1.93;;;1.20;99.90;;;;;;5037556;28;20629;-81
2023/03/11 02:21:25;;;;;;;2.73;2.17;;;1.20;99.90;;;;;;5037061;28;20205;-82
2023/03/11 02:24:37;;;;;;;2.20;2.00;;;1.20;99.90;;;;;;5055384;28;20659;-81
2023/03/11 02:27:12;;;;;;;2.40;2.13;;;1.20;99.90;;;;;;5027197;28;20193;-81
2023/03/11 02:29:39;;;;;;;2.53;2.33;;;1.20;99.90;;;;;;5055213;28;20666;-81
2023/03/11 02:32:08;;;;;;;2.60;2.30;;;1.20;99.90;;;;;;5037728;28;20184;-81
2023/03/11 02:34:36;;;;;;;3.20;2.47;;;1.20;99.90;;;;;;5055203;28;20275;-81
2023/03/11 02:37:10;;;;;;;3.00;2.50;;;1.20;99.90;;;;;;5055457;28;20179;-81
2023/03/11 02:39:39;;;;;;;2.77;2.40;;;1.20;99.90;;;;;;5055413;28;20184;-78
2023/03/11 02:42:26;;;;;;;2.70;2.17;;;1.20;99.90;;;;;;5037511;28;20213;-81
2023/03/11 02:44:58;;;;;;;2.80;2.17;;;1.20;99.90;;;;;;5037139;28;20217;-82
2023/03/11 02:47:25;;;;;;;2.37;1.80;;;1.20;99.90;;;;;;5055335;28;20640;-81
2023/03/11 02:49:51;;;;;;;2.00;1.80;;;1.20;99.90;;;;;;5036780;28;20182;-81
2023/03/11 02:52:18;;;;;;;2.33;2.13;;;1.20;99.90;;;;;;5037054;28;20232;-80
2023/03/11 02:54:44;;;;;;;2.73;2.20;;;1.20;99.90;;;;;;5037290;28;20204;-83
2023/03/11 02:57:09;;;;;;;2.53;2.10;;;1.20;99.90;;;;;;5037167;28;20572;-81
2023/03/11 02:59:35;;;;;;;1.97;1.50;;;1.10;99.90;;;;;;5036273;28;20216;-79
2023/03/11 03:02:00;;;;;;;2.50;2.30;;;1.20;99.90;;;;;;5055224;28;20197;-81
2023/03/11 03:04:26;;;;;;;2.27;1.90;;;1.20;99.90;;;;;;5037385;28;20656;-80
2023/03/11 03:06:51;;;;;;;2.30;1.90;;;1.10;99.90;;;;;;5037166;28;20170;-81
2023/03/11 03:09:17;;;;;;;2.00;1.67;;;1.10;99.90;;;;;;5055246;28;20180;-81
2023/03/11 03:11:43;;;;;;;2.40;1.80;;;1.20;99.90;;;;;;5054789;28;20211;-81
2023/03/11 03:14:08;;;;;;;1.93;1.60;;;1.10;99.90;;;;;;5037277;28;20218;-81
2023/03/11 03:16:34;;;;;;;2.10;1.90;;;1.10;99.90;;;;;;5037375;28;20188;-81
2023/03/11 03:18:59;;;;;;;2.20;1.77;;;1.10;99.90;;;;;;5037318;28;20188;-81
2023/03/11 03:21:25;;;;;;;2.47;1.80;;;1.00;99.90;;;;;;5037479;28;20209;-81
2023/03/11 03:23:50;;;;;;;2.17;1.50;;;1.00;99.90;;;;;;5055208;28;20228;-81
2023/03/11 03:26:16;;;;;;;1.60;1.50;;;1.00;99.90;;;;;;5055352;28;20193;-81
2023/03/11 03:28:41;;;;;;;1.80;1.60;;;1.00;99.90;;;;;;5055564;28;20177;-80
2023/03/11 03:31:09;;;;;;;2.00;1.80;;;1.00;99.90;;;;;;5054818;28;20207;-80
2023/03/11 03:33:34;;;;;;;2.27;1.93;;;0.90;99.90;;;;;;5037143;28;20224;-80
2023/03/11 03:36:04;;;;;;;2.27;1.80;;;0.90;99.90;;;;;;5037747;28;20178;-81
2023/03/11 03:38:29;;;;;;;2.33;1.97;;;1.00;99.90;;;;;;5037367;28;20185;-83
2023/03/11 03:40:55;;;;;;;1.70;1.57;;;1.00;99.90;;;;;;5036619;28;20207;-81
2023/03/11 03:43:21;;;;;;;1.60;1.50;;;1.00;99.90;;;;;;5055534;28;20192;-81
2023/03/11 03:45:58;;;;;;;2.13;1.77;;;1.10;99.90;;;;;;5055243;28;20196;-81
2023/03/11 03:48:23;;;;;;;2.13;1.93;;;1.00;99.90;;;;;;5037695;28;20287;-81
2023/03/11 03:50:49;;;;;;;2.10;1.90;;;1.00;99.90;;;;;;5037359;28;20560;-81
2023/03/11 03:53:15;;;;;;;2.10;1.90;;;1.10;99.90;;;;;;5055517;28;20635;-81
2023/03/11 03:55:40;;;;;;;2.47;1.93;;;1.10;99.90;;;;;;5037353;28;20201;-81
2023/03/11 03:58:06;;;;;;;1.97;1.63;;;1.10;99.90;;;;;;5055560;28;20177;-81
2023/03/11 04:00:31;;;;;;;2.87;2.10;;;1.10;99.90;;;;;;5055145;28;20192;-81
2023/03/11 04:02:57;;;;;;;2.27;1.80;;;1.00;99.90;;;;;;5055880;28;20181;-80
2023/03/11 04:05:25;;;;;;;2.33;2.00;;;1.00;99.90;;;;;;5037432;28;20188;-81
2023/03/11 04:07:51;;;;;;;2.97;1.93;;;1.00;99.90;;;;;;5037538;28;20173;-82
2023/03/11 04:10:17;;;;;;;2.17;1.83;;;1.00;99.90;;;;;;5054057;28;20170;-80
2023/03/11 04:12:43;;;;;;;2.17;1.90;;;1.00;99.90;;;;;;5055511;28;20180;-80
2023/03/11 04:15:09;;;;;;;2.60;1.63;;;1.00;99.90;;;;;;5037552;28;20632;-80
2023/03/11 04:17:35;;;;;;;1.57;1.40;;;1.00;99.90;;;;;;5037660;28;20247;-80
2023/03/11 04:20:01;;;;;;;2.37;1.67;;;1.00;99.90;;;;;;5038013;28;20174;-81
2023/03/11 04:22:27;;;;;;;1.90;1.50;;;1.00;99.90;;;;;;5055499;28;20216;-80
2023/03/11 04:24:52;;;;;;;2.13;1.60;;;1.00;99.90;;;;;;5038281;28;20197;-80
2023/03/11 04:27:18;;;;;;;1.97;1.60;;;1.00;99.90;;;;;;5055904;28;20220;-80
2023/03/11 04:29:43;;;;;;;1.90;1.60;;;0.90;99.90;;;;;;5036506;28;20173;-80
2023/03/11 04:32:09;;;;;;;1.93;1.70;;;0.90;99.90;;;;;;5036721;28;20185;-80
2023/03/11 04:34:34;;;;;;;1.90;1.70;;;1.00;99.90;;;;;;5054463;28;20196;-80
2023/03/11 04:37:00;;;;;;;2.20;1.50;;;0.90;99.90;;;;;;5036898;28;20600;-81
2023/03/11 04:39:26;;;;;;;1.80;1.70;;;0.90;99.90;;;;;;5036380;28;20178;-80
2023/03/11 04:41:51;;;;;;;1.93;1.50;;;0.90;99.90;;;;;;5054168;28;20204;-80
2023/03/11 04:44:17;;;;;;;2.10;1.60;;;0.90;99.90;;;;;;5054839;28;20611;-80
2023/03/11 04:46:42;;;;;;;1.97;1.47;;;0.80;99.90;;;;;;5055000;28;20172;-81
2023/03/11 04:49:09;;;;;;;1.70;1.40;;;0.80;99.90;;;;;;5037320;28;20197;-81
2023/03/11 04:51:34;;;;;;;2.70;1.60;;;0.80;99.90;;;;;;5037718;28;20236;-80
2023/03/11 04:54:00;;;;;;;2.03;1.40;;;0.80;99.90;;;;;;5037607;28;20710;-80
2023/03/11 04:56:25;;;;;;;1.77;1.60;;;0.80;99.90;;;;;;5054962;28;20629;-80
2023/03/11 04:58:51;;;;;;;3.00;1.50;;;0.80;99.90;;;;;;5055069;28;20195;-81
2023/03/11 05:01:16;;;;;;;1.90;1.43;;;0.80;99.90;;;;;;5054708;28;20201;-81
2023/03/11 05:03:42;;;;;;;1.73;1.40;;;0.80;99.90;;;;;;5054857;28;20201;-80
2023/03/11 05:06:08;;;;;;;1.47;1.33;;;0.80;99.90;;;;;;5037077;28;20239;-81
2023/03/11 05:08:33;;;;;;;1.43;1.20;;;0.80;99.90;;;;;;5054649;28;20180;-82
2023/03/11 05:10:59;;;;;;;1.47;1.33;;;0.80;99.90;;;;;;5036868;28;20189;-80
2023/03/11 05:13:25;;;;;;;4.07;1.50;;;0.90;99.90;;;;;;5055209;28;20610;-81
2023/03/11 05:15:50;;;;;;;1.63;1.20;;;0.90;99.90;;;;;;5096690;22;20231;-85
2023/03/11 05:18:16;;;;;;;1.97;1.30;;;0.90;99.90;;;;;;5056625;28;20173;-85
2023/03/11 05:20:42;;;;;;;1.30;1.20;;;0.90;99.90;;;;;;5073322;28;20196;-85
2023/03/11 05:23:08;;;;;;;1.80;1.30;;;0.90;99.90;;;;;;5094019;28;20168;-85
2023/03/11 05:25:34;;;;;;;1.93;1.20;;;0.80;99.90;;;;;;5077034;28;20279;-85
2023/03/11 05:28:00;;;;;;;1.97;1.27;;;0.80;99.90;;;;;;5095058;28;20172;-85
2023/03/11 05:30:25;;;;;;;2.47;1.30;;;0.80;99.90;;;;;;5063361;28;20239;-85
2023/03/11 05:32:51;;;;;;;1.63;1.20;;;0.90;99.90;;;;;;5086537;28;20595;-85
2023/03/11 05:35:17;;;;;;;1.93;1.20;;;0.80;99.90;;;;;;5058846;28;20221;-88
2023/03/11 05:37:44;;;;;;;1.53;1.10;;;0.80;99.90;;;;;;5056600;28;20177;-85
2023/03/11 05:40:11;;;;;;;1.77;1.20;;;0.80;99.90;;;;;;5056304;28;20558;-85
2023/03/11 05:42:36;;;;;;;1.10;1.00;;;0.80;99.90;;;;;;5074553;28;20210;-85
2023/03/11 05:45:02;;;;;;;1.67;1.20;;;0.80;99.90;;;;;;5056601;28;20195;-85
2023/03/11 05:47:28;;;;;;;1.30;1.20;;;0.80;99.90;;;;;;5074430;28;20177;-83
2023/03/11 05:49:53;;;;;;;2.30;1.40;;;0.90;99.90;;;;;;5057902;28;20169;-83
2023/03/11 05:52:19;;;;;;;1.87;1.43;;;0.80;99.90;;;;;;5057195;28;20200;-87
2023/03/11 05:54:48;;;;;;;1.77;1.60;;;0.90;99.90;;;;;;5074674;28;20196;-78
2023/03/11 05:57:14;;;;;;;2.40;1.20;;;0.90;99.90;;;;;;5056640;28;20187;-79
2023/03/11 05:59:40;;;;;;;2.60;1.37;;;1.40;99.90;;;;;;5057002;28;20176;-80
2023/03/11 06:02:06;;;;;;;1.80;1.50;;;1.40;99.90;;;;;;5056385;28;20200;-79
2023/03/11 06:04:31;;;;;;;2.17;1.40;;;1.40;99.90;;;;;;5056269;28;20196;-80
2023/03/11 06:06:57;;;;;;;1.43;1.30;;;1.70;99.90;;;;;;5056477;28;20169;-83
2023/03/11 06:09:22;;;;;;;2.17;1.30;;;1.80;99.90;;;;;;5056495;28;20268;-84
2023/03/11 06:11:48;;;;;;;1.70;1.30;;;1.60;99.90;;;;;;5074341;28;20655;-84
2023/03/11 06:14:14;;;;;;;1.73;1.40;;;1.30;99.90;;;;;;5056227;28;20224;-83
2023/03/11 06:16:40;;;;;;;1.83;1.50;;;1.20;99.90;;;;;;5056397;28;20184;-86
2023/03/11 06:19:06;;;;;;;2.77;1.60;;;1.00;99.90;;;;;;5075488;28;20195;-83
2023/03/11 06:21:32;;;;;;;3.37;1.60;;;1.00;99.90;;;;;;5056835;28;20205;-82
2023/03/11 06:23:57;;;;;;;1.47;1.33;;;1.00;99.90;;;;;;5076648;28;20248;-81
2023/03/11 06:26:23;;;;;;;1.40;1.20;;;1.00;99.90;;;;;;5077688;28;20540;-80
2023/03/11 06:28:50;;;;;;;1.73;1.30;;;1.00;99.90;;;;;;5076872;28;20176;-83
2023/03/11 06:31:19;;;;;;;2.03;1.33;;;1.00;99.90;;;;;;5057132;28;20173;-83
2023/03/11 06:33:46;;;;;;;2.93;1.60;;;1.00;99.90;;;;;;5073342;28;20182;-85
2023/03/11 06:36:13;;;;;;;1.83;1.10;;;1.00;99.90;;;;;;5055811;28;20203;-85
2023/03/11 06:38:39;;;;;;;2.70;1.50;;;1.00;99.90;;;;;;5055751;28;20235;-88
2023/03/11 06:41:05;;;;;;;2.33;1.67;;;1.00;99.90;;;;;;5073709;28;20193;-85
2023/03/11 06:43:32;;;;;;;2.03;1.50;;;0.90;99.90;;;;;;5056337;28;20181;-85
2023/03/11 06:45:58;;;;;;;1.90;1.50;;;0.90;99.90;;;;;;5076782;28;20220;-84
2023/03/11 06:48:24;;;;;;;4.23;1.60;;;0.90;99.90;;;;;;5076074;28;20196;-85
2023/03/11 06:50:57;;;;;;;1.50;1.10;;;0.90;99.90;;;;;;5056911;28;20181;-85
2023/03/11 06:53:24;;;;;;;2.77;1.43;;;0.90;99.90;;;;;;5074669;28;20631;-84
2023/03/11 06:56:01;;;;;;;1.50;1.40;;;0.90;99.90;;;;;;5073834;28;20199;-85
2023/03/11 06:58:28;;;;;;;1.93;1.30;;;1.00;99.90;;;;;;5055436;28;20203;-84
2023/03/11 07:00:54;;;;;;;1.93;1.30;;;1.00;99.90;;;;;;5055085;28;20270;-84
2023/03/11 07:03:19;;;;;;;1.83;1.50;;;1.10;99.90;;;;;;5055148;28;20600;-83
2023/03/11 07:05:48;;;;;;;1.60;1.50;;;1.10;99.90;;;;;;5054961;28;20235;-84
2023/03/11 07:08:14;;;;;;;1.20;1.10;;;1.00;99.90;;;;;;5055145;28;20169;-82
2023/03/11 07:10:39;;;;;;;2.73;1.13;;;1.10;99.90;;;;;;5055184;28;20184;-83
2023/03/11 07:13:05;;;;;;;1.87;1.30;;;1.10;99.90;;;;;;5056161;28;20172;-85
2023/03/11 07:15:30;;;;;;;1.40;1.30;;;1.00;99.90;;;;;;5056479;28;20652;-85
2023/03/11 07:17:56;;;;;;;1.30;1.20;;;1.00;99.90;;;;;;5056137;28;20583;-83
2023/03/11 07:20:22;;;;;;;2.30;1.47;;;1.00;99.90;;;;;;5055254;28;20176;-84
2023/03/11 07:22:47;;;;;;;1.70;1.40;;;1.10;99.90;;;;;;5055528;28;20187;-84
2023/03/11 07:25:13;;;;;;;1.80;1.40;;;1.10;99.90;;;;;;5073313;28;20201;-81
2023/03/11 07:27:39;;;;;;;2.17;1.23;;;1.20;99.90;;;;;;5056961;28;20231;-83
2023/03/11 07:30:05;;;;;;;2.03;1.33;;;1.20;99.90;;;;;;5055796;28;20177;-86
2023/03/11 07:32:30;;;;;;;1.30;1.20;;;1.30;99.90;;;;;;5055547;28;20176;-86
2023/03/11 07:34:56;;;;;;;1.50;1.40;;;1.30;99.90;;;;;;5056502;28;20201;-84
2023/03/11 07:37:21;;;;;;;1.33;1.23;;;1.30;99.90;;;;;;5055974;28;20184;-84
2023/03/11 07:39:47;;;;;;;1.80;1.30;;;1.30;99.90;;;;;;5055674;28;20185;-84
2023/03/11 07:42:12;;;;;;;1.50;1.20;;;1.30;99.90;;;;;;5053728;28;20255;-81
2023/03/11 07:44:38;;;;;;;1.60;1.30;;;1.20;99.90;;;;;;5073617;28;20192;-83
2023/03/11 07:47:05;;;;;;;1.80;1.30;;;1.10;99.90;;;;;;5067117;28;20176;-83
2023/03/11 07:49:31;;;;;;;1.50;1.20;;;1.10;99.90;;;;;;5074461;28;20188;-83
2023/03/11 07:51:56;;;;;;;2.47;1.57;;;1.20;99.90;;;;;;5072883;28;20180;-81
2023/03/11 07:54:22;;;;;;;1.57;1.33;;;1.10;99.90;;;;;;5063847;28;20553;-84
2023/03/11 07:56:47;;;;;;;3.20;1.30;;;1.10;99.90;;;;;;5062011;28;20206;-84
2023/03/11 07:59:13;;;;;;;1.83;1.47;;;1.00;99.90;;;;;;5072840;28;20243;-83
2023/03/11 08:01:40;;;;;;;2.33;1.40;;;1.00;99.90;;;;;;5072466;28;20205;-84
2023/03/11 08:04:08;;;;;;;3.03;1.50;;;1.00;99.90;;;;;;5054084;28;20177;-83
2023/03/11 08:06:35;;;;;;;2.13;1.83;;;0.90;99.90;;;;;;5057563;28;20177;-83
2023/03/11 08:09:06;;;;;;;2.77;1.60;;;0.90;99.90;;;;;;5039987;28;20272;-83
2023/03/11 08:11:31;;;;;;;3.03;2.30;;;1.00;99.90;;;;;;5039297;28;20177;-82
2023/03/11 08:13:57;;;;;;;1.90;1.50;;;1.10;99.90;;;;;;5055211;28;20606;-82
2023/03/11 08:16:24;;;;;;;4.37;1.60;;;1.20;99.90;;;;;;5055441;28;20223;-82
2023/03/11 08:18:56;;;;;;;3.53;1.67;;;1.20;99.90;;;;;;5038650;28;20288;-82
2023/03/11 08:21:24;;;;;;;2.37;1.43;;;1.20;99.90;;;;;;5056186;28;20251;-82
2023/03/11 08:23:50;;;;;;;2.30;1.30;;;1.10;99.90;;;;;;5038622;28;20272;-83
2023/03/11 08:26:19;;;;;;;2.50;1.60;;;1.10;99.90;;;;;;5038380;28;20180;-83
2023/03/11 08:28:45;;;;;;;1.90;1.37;;;1.20;99.90;;;;;;5056824;28;20173;-83
2023/03/11 08:31:19;;;;;;;1.83;1.40;;;1.20;99.90;;;;;;5056010;28;20325;-83
2023/03/11 08:33:48;;;;;;;1.87;1.30;;;1.30;99.90;;;;;;5037032;28;20173;-87
2023/03/11 08:36:14;;;;;;;2.67;1.20;;;1.30;99.90;;;;;;5056012;28;20205;-82
2023/03/11 08:38:40;;;;;;;2.80;1.30;;;1.20;99.90;;;;;;5038678;28;20239;-84
2023/03/11 08:41:05;;;;;;;2.57;1.47;;;1.30;99.90;;;;;;5038677;28;20198;-82
2023/03/11 08:43:31;;;;;;;2.33;1.40;;;1.30;99.90;;;;;;5054724;28;20188;-83
2023/03/11 08:46:00;;;;;;;4.77;1.40;;;1.40;99.90;;;;;;5037055;28;20228;-82
2023/03/11 08:48:25;;;;;;;2.53;1.30;;;1.50;99.90;;;;;;5036756;28;20205;-83
2023/03/11 08:50:51;;;;;;;1.37;1.20;;;1.50;99.90;;;;;;5054708;28;20184;-83
2023/03/11 08:53:16;;;;;;;3.33;1.80;;;1.40;99.90;;;;;;5036036;28;20189;-83
2023/03/11 08:55:42;;;;;;;3.17;1.30;;;1.50;99.90;;;;;;5034706;28;20198;-83
2023/03/11 08:58:07;;;;;;;1.03;0.90;;;1.50;99.90;;;;;;5055529;28;20268;-83
2023/03/11 09:00:33;;;;;;;1.77;1.00;;;1.50;99.90;;;;;;5038589;28;20625;-83
2023/03/11 09:02:59;;;;;;;2.10;1.27;;;1.50;99.90;;;;;;5038805;28;20162;-83
2023/03/11 09:05:24;;;;;;;1.67;0.93;;;1.50;99.90;;;;;;5038804;28;20683;-82
2023/03/11 09:07:50;;;;;;;2.87;1.10;;;1.60;99.90;;;;;;5038194;28;20177;-83
2023/03/11 09:10:16;;;;;;;2.27;1.17;;;1.60;99.90;;;;;;5038708;28;20591;-83
2023/03/11 09:12:42;;;;;;;1.20;0.90;;;1.80;99.90;;;;;;5056138;28;20223;-82
2023/03/11 09:15:08;;;;;;;1.73;1.00;;;1.70;99.90;;;;;;5055858;28;20229;-83
2023/03/11 09:17:34;;;;;;;2.77;0.73;;;1.70;99.90;;;;;;5056095;28;20166;-83
2023/03/11 09:20:00;;;;;;;1.63;0.80;;;1.60;99.90;;;;;;5037464;28;20250;-83
2023/03/11 09:22:26;;;;;;;1.73;1.07;;;1.50;99.90;;;;;;5038197;28;20193;-83
2023/03/11 09:24:52;;;;;;;1.60;0.80;;;1.50;99.90;;;;;;5055494;28;20219;-84
2023/03/11 09:27:17;;;;;;;1.73;1.00;;;1.60;99.90;;;;;;5055417;28;20536;-83
2023/03/11 09:29:43;;;;;;;2.00;1.10;;;1.60;99.90;;;;;;5055756;28;20194;-83
2023/03/11 09:32:13;;;;;;;1.30;1.17;;;1.60;99.90;;;;;;5055320;28;20268;-82
2023/03/11 09:34:40;;;;;;;2.27;1.00;;;1.60;99.90;;;;;;5051701;28;20212;-83
2023/03/11 09:37:05;;;;;;;1.97;1.10;;;1.60;99.90;;;;;;5083681;28;20177;-85
2023/03/11 09:39:31;;;;;;;3.50;1.20;;;1.60;99.90;;;;;;5076927;28;20186;-82
2023/03/11 09:42:10;;;;;;;2.77;1.17;;;1.70;99.90;;;;;;5095096;28;20200;-83
2023/03/11 09:44:50;;;;;;;1.70;1.10;;;1.80;99.90;;;;;;5077016;28;20195;-82
2023/03/11 09:47:28;;;;;;;2.30;0.80;;;2.00;99.90;;;;;;5095175;28;20187;-82
2023/03/11 09:49:56;;;;;;;0.73;0.73;;;2.10;99.90;;;;;;5095024;28;20164;-81
2023/03/11 09:52:40;;;;;;;2.30;1.27;;;2.10;99.90;;;;;;5077666;28;20235;-81
2023/03/11 09:55:36;;;;;;;2.03;1.03;;;2.30;99.90;;;;;;5095257;28;20192;-81
2023/03/11 09:58:11;;;;;;;0.90;0.90;;;2.50;99.90;;;;;;5064721;28;20184;-81
2023/03/11 10:00:38;;;;;;;2.27;1.03;;;2.50;99.90;;;;;;5076958;28;20173;-84
2023/03/11 10:03:11;;;;;;;2.60;0.97;;;2.50;99.90;;;;;;5077109;28;20226;-81
2023/03/11 10:05:37;;;;;;;1.77;1.10;;;2.50;99.80;;;;;;5076837;28;20195;-82
2023/03/11 10:08:18;;;;;;;2.60;1.10;;;2.50;99.90;;;;;;5077303;28;20172;-82
2023/03/11 10:10:58;;;;;;;3.03;1.10;;;2.60;99.90;;;;;;5095276;28;20168;-82
2023/03/11 10:13:39;;;;;;;1.67;1.17;;;2.70;96.90;;;;;;5077405;28;20201;-82
2023/03/11 10:16:13;;;;;;;1.33;1.00;;;2.70;99.90;;;;;;5076813;28;20202;-82
2023/03/11 10:18:51;;;;;;;1.17;0.70;;;2.70;98.80;;;;;;5076722;28;20168;-81
2023/03/11 10:21:27;;;;;;;2.60;0.97;;;2.70;95.80;;;;;;5076278;28;20247;-82
2023/03/11 10:24:02;;;;;;;3.20;1.00;;;2.70;95.40;;;;;;5076160;28;20537;-82
2023/03/11 10:26:31;;;;;;;2.90;1.03;;;2.60;93.40;;;;;;5076229;28;20168;-82
2023/03/11 10:29:18;;;;;;;2.07;0.90;;;2.60;93.30;;;;;;5075692;28;20527;-85
2023/03/11 10:32:14;;;;;;;0.90;0.73;;;2.60;96.10;;;;;;5075817;28;20559;-85
2023/03/11 10:35:21;;;;;;;1.40;1.00;;;2.80;93.70;;;;;;5075688;28;20659;-85
2023/03/11 10:38:12;;;;;;;0.60;0.60;;;3.40;93.80;;;;;;5054337;28;20190;-85
2023/03/11 10:40:41;;;;;;;1.90;0.80;;;3.90;59.10;;;;;;5093416;28;20183;-84
2023/03/11 10:43:17;;;;;;;1.33;0.57;;;4.00;65.50;;;;;;5075596;28;20175;-82
2023/03/11 10:45:47;;;;;;;1.03;0.70;;;4.20;53.90;;;;;;5062410;28;20199;-81
2023/03/11 10:48:15;;;;;;;1.53;0.80;;;4.10;51.30;;;;;;5063876;28;20172;-82
2023/03/11 10:51:21;;;;;;;2.33;0.60;;;4.50;54.80;;;;;;5086336;28;20208;-82
2023/03/11 10:53:51;;;;;;;1.10;0.60;;;4.50;41.10;;;;;;5079596;28;20213;-82
2023/03/11 10:56:26;;;;;;;2.40;0.90;;;4.90;54.20;;;;;;5075701;28;20174;-82
2023/03/11 10:58:52;;;;;;;0.60;0.60;;;4.80;73.80;;;;;;5075483;28;20176;-83
2023/03/11 11:01:20;;;;;;;1.83;0.80;;;4.60;62.30;;;;;;5075309;28;20199;-82
2023/03/11 11:03:48;;;;;;;1.70;0.90;;;4.30;68.30;;;;;;5093672;28;20642;-81
2023/03/11 11:06:49;;;;;;;0.60;0.60;;;3.90;70.90;;;;;;5075137;28;20183;-83
2023/03/11 11:09:18;;;;;;;3.23;1.00;;;3.60;80.30;;;;;;4975694;28;20169;-81
2023/03/11 11:12:12;;;;;;;17.60;6.73;;;3.60;86.90;;;;;;5056389;28;20226;-78
2023/03/11 11:14:49;;;;;;;17.33;6.47;;;4.40;99.90;;;;;;5147273;22;20231;-78
2023/03/11 11:17:23;;;;;;;4.37;1.00;;;5.70;99.90;;;;;;5060667;28;20273;-78
2023/03/11 11:19:50;;;;;;;1.50;0.90;;;6.00;67.50;;;;;;5059600;28;20547;-78
2023/03/11 11:22:18;;;;;;;1.63;0.70;;;5.30;60.90;;;;;;5057459;28;20227;-81
2023/03/11 11:24:46;;;;;;;3.67;1.00;;;4.60;68.80;;;;;;5053413;28;20222;-79
2023/03/11 11:27:20;;;;;;;1.80;0.93;;;4.10;82.50;;;;;;5045585;28;20176;-80
2023/03/11 11:30:01;;;;;;;1.90;0.90;;;4.10;83.90;;;;;;5049611;28;20172;-82
2023/03/11 11:32:26;;;;;;;1.73;0.80;;;4.00;66.70;;;;;;5055580;28;20182;-83
2023/03/11 11:34:59;;;;;;;2.23;0.90;;;3.90;71.10;;;;;;5073872;28;20271;-82
2023/03/11 11:37:30;;;;;;;2.80;1.40;;;3.80;79.40;;;;;;5055559;28;20182;-82
2023/03/11 11:40:19;;;;;;;1.33;0.87;;;3.70;82.50;;;;;;5055590;28;20172;-83
2023/03/11 11:42:55;;;;;;;2.93;1.10;;;3.60;80.00;;;;;;5042520;28;20690;-80
2023/03/11 11:45:21;;;;;;;2.30;1.03;;;3.60;79.90;;;;;;5073975;28;20199;-81
2023/03/11 11:47:51;;;;;;;3.87;1.70;;;3.60;77.50;;;;;;5055018;28;20202;-81
2023/03/11 11:50:28;;;;;;;3.07;1.70;;;4.10;99.90;;;;;;5074568;28;20182;-83
2023/03/11 11:53:24;;;;;;;1.33;0.80;;;4.70;99.90;;;;;;5078071;28;20172;-79
2023/03/11 11:55:52;;;;;;;3.60;1.67;;;4.90;83.20;;;;;;5073790;28;20200;-82
2023/03/11 11:58:19;;;;;;;2.77;1.50;;;5.10;87.20;;;;;;5075048;28;20173;-78
2023/03/11 12:00:51;;;;;;;2.93;1.50;;;5.60;84.70;;;;;;5075131;28;20165;-78
2023/03/11 12:03:56;;;;;;;1.80;0.90;;;6.40;72.10;;;;;;5056458;28;20169;-80
2023/03/11 12:06:31;;;;;;;7.77;1.50;;;7.00;52.10;;;;;;5038927;28;20698;-79
2023/03/11 12:09:04;;;;;;;3.27;1.60;;;7.20;41.30;;;;;;5056750;28;20173;-82
2023/03/11 12:11:48;;;;;;;2.57;0.80;;;7.10;28.00;;;;;;5075459;28;20655;-80
2023/03/11 12:14:30;;;;;;;2.40;1.00;;;6.40;28.10;;;;;;5072993;28;20175;-82
2023/03/11 12:17:03;;;;;;;5.53;1.80;;;6.00;32.60;;;;;;5054269;28;20341;-83
2023/03/11 12:19:35;;;;;;;1.03;0.83;;;5.70;32.10;;;;;;5054405;28;20188;-83
2023/03/11 12:22:25;;;;;;;1.60;1.00;;;5.30;35.20;;;;;;5054676;28;20200;-83
2023/03/11 12:25:14;;;;;;;1.30;0.90;;;5.00;35.50;;;;;;5069341;28;20209;-83
2023/03/11 12:27:45;;;;;;;0.80;0.80;;;4.80;46.80;;;;;;5016855;28;20181;-84
2023/03/11 12:30:25;;;;;;;2.57;1.00;;;4.60;46.20;;;;;;5037420;28;20170;-85
2023/03/11 12:32:58;;;;;;;2.37;0.90;;;4.50;53.20;;;;;;5036837;28;20723;-84
2023/03/11 12:35:23;;;;;;;1.90;1.00;;;4.40;49.50;;;;;;5038899;28;20629;-84
2023/03/11 12:38:17;;;;;;;2.43;1.00;;;4.40;53.40;;;;;;5055904;28;20643;-82
2023/03/11 12:40:59;;;;;;;3.03;1.10;;;4.40;51.00;;;;;;5060191;28;20785;-83
2023/03/11 12:43:33;;;;;;;1.90;0.73;;;4.40;54.50;;;;;;5050265;28;20181;-83
2023/03/11 12:46:06;;;;;;;2.50;0.80;;;4.50;54.40;;;;;;5044077;28;20262;-83
2023/03/11 12:48:51;;;;;;;0.80;0.80;;;4.40;60.50;;;;;;5039345;28;20220;-82
2023/03/11 12:51:25;;;;;;;2.03;1.00;;;4.50;62.10;;;;;;5039936;28;20180;-81
2023/03/11 12:53:54;;;;;;;2.73;1.07;;;4.50;61.40;;;;;;5038940;28;20264;-83
2023/03/11 12:56:42;;;;;;;1.90;1.00;;;4.50;58.60;;;;;;5037968;28;20194;-83
2023/03/11 12:59:52;;;;;;;1.80;0.87;;;4.50;63.10;;;;;;5038596;28;20269;-83
2023/03/11 13:02:39;;;;;;;5.23;2.40;;;4.30;52.20;;;;;;5055461;28;20222;-83
2023/03/11 13:05:23;;;;;;;2.43;1.07;;;4.40;59.10;;;;;;5038695;28;20259;-84
2023/03/11 13:08:10;;;;;;;2.00;1.03;;;4.40;59.70;;;;;;5039238;28;20644;-85
2023/03/11 13:10:44;;;;;;;1.53;1.13;;;4.30;50.40;;;;;;5056066;28;20203;-83